메인 페이지
METAR-TAF:

METAR-TAF

공항 :

라바트, 모로코

위도: 34-03N, 경도: 006-46W, 고도: 84m

현재 날씨관측

예보는 39분 전, 09:00시(UTC)에 발표되었습니다.
북서5kt풍과 북북서풍을 오가는
온도 20°C
습도 73%
기압 1017 hPa
시정: 5000m
고도 1000ft 상공 구름 보통
고도 1600ft 상공 구름 많음

METAR: GMME 200900Z 31005KT 280V340 5000 SCT010 BKN016 20/15 Q1017 NOSIG

시각: 10:39 (09:39 UTC)

예보

예보는 4 시간 39분 전, 05:00시(UTC)에 발표되었습니다.
예보 대상 시간: 20일 06시부터 21일 12시까지 (UTC)
북서6kt
시정: 6000m
고도 1000ft 상공 구름 보통
고도 2000ft 상공 구름 많음
전환 중
20일 10시부터 20일 12시까지 (UTC)
남동10kt
시정: 8000m
고도 1600ft 상공 구름 보통
고도 2400ft 상공 구름 보통
전환 중
20일 18시부터 20일 20시까지 (UTC)
북서4kt
시정: 5000m
고도 800ft 상공 구름 보통
고도 1500ft 상공 구름 많음

TAF: GMME 200500Z 2006/2112 32006KT 6000 SCT010 BKN020 BECMG 2010/2012 14010KT 8000 SCT016 SCT024 BECMG 2018/2020 32004KT 5000 SCT008 BKN015

4,000개 이상의 공항 관측 자료 및 예보 (METAR 및 TAF 보고).

지도상에서 검색 가능한 기상관측소가 노란 점과 빨간 점으로 표시되어 있습니다.

기상관측소 명을 보려면 표시 위로 마우스를 이동하세요.

날씨 관측과 예보를 보려면 클릭하세요.

지도 변경 : 확대하려면 엑스 표시가 있는 녹색 버튼, 축소하려면 빼기 표시가 있는 녹색 버튼, 다음 페이지의 지도를 보려면 녹색 화살표를 클릭하세요.


METAR-TAF: